Terminal Aerodrome Forecast
Issued by NWS

Home | Current Version | Previous Version | Text Only | Print | Product List | Glossary On
Versions: 1 2 3 4 5 6 7 8 9 10 11 12 13 14 15 16 17 18
000
FTUS43 KGRB 220211 AAA
TAFMTW
TAF AMD
KMTW 220211Z 2202/2224 22007KT P6SM SCT035 OVC080
      TEMPO 2203/2207 5SM -SHRA BKN025
     FM220700 27009KT P6SM -SHRA SCT018 OVC035
     FM221200 30010KT P6SM BKN021
     FM221400 31012G17KT P6SM SCT025=

USA.gov is the U.S. government's official web portal to all federal, state and local government web resources and services.